EST,Max TemperatureF,Mean TemperatureF,Min TemperatureF,Max Dew PointF,MeanDew PointF,Min DewpointF,Max Humidity, Mean Humidity, Min Humidity, Max Sea Level PressureIn, Mean Sea Level PressureIn, Min Sea Level PressureIn, Max VisibilityMiles, Mean VisibilityMiles, Min VisibilityMiles, Max Wind SpeedMPH, Mean Wind SpeedMPH, Max Gust SpeedMPH,PrecipitationIn, CloudCover, Events, WindDirDegrees
2011-12-1,57,41,25,28,24,11,92,54,16,30.39,30.30,30.17,10,10,10,14,2,22,0.00,0,,324
2011-12-2,59,42,24,29,23,16,92,56,19,30.51,30.43,30.37,10,10,10,16,4,21,0.00,0,,338
2011-12-3,54,41,27,30,27,23,92,61,29,30.59,30.53,30.49,10,10,10,13,3,16,0.00,0,,149
2011-12-4,53,41,28,41,35,26,92,73,54,30.52,30.42,30.33,10,10,9,12,3,28,0.00,5,,174
2011-12-5,56,53,49,54,48,39,100,83,66,30.33,30.21,30.13,10,6,0,12,7,18,0.13,8,Fog-Rain,168
2011-12-6,61,58,55,58,56,54,100,95,90,30.15,30.05,29.90,10,5,1,16,5,29,0.87,8,Rain,152
2011-12-7,60,46,32,59,44,27,100,88,75,30.05,29.80,29.60,10,7,2,31,12,41,0.82,8,Rain-Snow,347
2011-12-8,50,39,28,28,20,7,78,52,26,30.30,30.23,30.08,10,10,10,24,8,36,T,1,,359
2011-12-9,53,41,28,30,27,23,92,63,33,30.32,30.25,30.18,10,10,10,13,4,15,0.00,0,,337
2011-12-10,44,37,29,29,25,23,82,64,45,30.45,30.36,30.24,10,10,10,23,11,28,0.00,0,,350
2011-12-11,44,33,21,26,21,17,92,64,36,30.58,30.51,30.45,10,10,5,12,4,16,0.00,1,,175
2011-12-12,53,43,32,37,30,22,85,68,50,30.54,30.46,30.40,10,10,10,9,2,10,0.00,6,,174
2011-12-13,63,51,39,45,41,37,100,76,52,30.48,30.43,30.35,10,6,0,12,4,15,0.00,4,Fog,332
2011-12-14,66,53,40,46,43,39,96,70,44,30.39,30.32,30.24,10,10,10,14,3,18,0.00,3,,145
2011-12-15,65,56,47,52,48,43,86,73,60,30.24,30.16,30.10,10,10,10,18,9,28,0.00,3,,183
2011-12-16,57,50,43,52,50,41,100,90,80,30.21,30.15,30.09,10,7,2,23,7,29,0.35,7,Rain,341
2011-12-17,46,39,31,41,32,20,92,66,40,30.26,30.19,30.13,10,10,10,18,11,25,0.00,5,,339
2011-12-18,49,39,29,26,22,16,78,54,29,30.35,30.29,30.23,10,10,10,21,8,29,0.00,0,,342
2011-12-19,58,41,24,29,25,23,85,55,25,30.34,30.26,30.19,10,10,10,13,4,17,0.00,0,,170
2011-12-20,57,44,31,52,44,28,96,81,66,30.22,30.16,30.11,10,9,2,14,6,20,0.02,6,Rain,180
2011-12-21,60,56,51,57,53,50,100,92,84,30.13,30.01,29.90,10,7,1,23,9,32,0.28,7,Rain,176
2011-12-22,63,55,46,61,54,46,100,89,78,30.11,29.99,29.87,10,3,0,21,6,28,1.64,7,Fog-Rain-Thunderstorm,187
2011-12-23,54,46,38,48,40,35,93,79,65,30.28,30.12,29.98,10,10,10,25,12,31,0.06,4,,347
2011-12-24,52,43,34,39,35,28,100,75,49,30.43,30.36,30.28,10,10,10,15,5,31,0.00,2,,344
2011-12-25,46,40,34,37,33,22,100,77,54,30.38,30.31,30.21,10,10,8,13,4,16,0.00,3,,336
2011-12-26,53,45,36,26,23,14,70,46,22,30.37,30.27,30.15,10,10,10,20,7,25,0.00,0,,23
2011-12-27,50,43,36,43,35,26,100,78,55,30.12,29.78,29.59,10,7,2,22,10,30,0.93,7,Rain,189
2011-12-28,45,38,30,30,25,21,89,65,40,30.08,29.96,29.83,10,9,1,29,11,36,0.01,3,Snow,339
2011-12-29,53,38,22,37,24,16,96,61,26,30.08,30.02,29.93,10,10,10,13,2,17,0.00,0,,202
2011-12-30,58,43,28,46,39,27,92,73,53,30.05,29.96,29.88,10,10,10,21,7,28,0.00,3,,179
2011-12-31,58,46,34,44,34,31,93,66,39,30.15,30.04,29.88,10,9,2,15,4,22,0.00,0,,346